CheckWX is a tool to help pilots better visualize weather data.  It is not intended as a substitute for an official pre-flight weather briefing.

04:40:37 UTC

KJFK TAF
John F Kennedy International Airport
New York, New York, USA
KJFK 290234Z 2903/0106 25011G17KT P6SM FEW070 FM291700 28018G27KT P6SM FEW060 BKN100 FM010100 31013G20KT P6SM FEW100

Feb-29@
03:00 UTC

Feb-29 @ 03:00 UTC

Feb-29@
17:00 UTC

Feb-29 @ 17:00 UTC

KJFK 290234Z 2903/0106 25011G17KT P6SM FEW070
Wind
  • 250° at 11 KTS
  • {Gusting to 17 KTS
Cloud Levels
  • Few at 7,000' AGL

Feb-29@
17:00 UTC

Feb-29 @ 17:00 UTC

Mar-1@
01:00 UTC

Mar-1 @ 01:00 UTC

FM291700 28018G27KT P6SM FEW060 BKN100

From

From Standard forecast or significant change

Wind
  • 280° at 18 KTS
  • {Gusting to 27 KTS
Cloud Levels
  • Few at 6,000' AGL
  • Broken at 10,000' AGL

Mar-1@
01:00 UTC

Mar-1 @ 01:00 UTC

Mar-1@
06:00 UTC

Mar-1 @ 06:00 UTC

FM010100 31013G20KT P6SM FEW100

From

From Standard forecast or significant change

Wind
  • 310° at 13 KTS
  • {Gusting to 20 KTS
Cloud Levels
  • Few at 10,000' AGL